Union Church, Louisiana
Current Conditions -  °F | °C
As of 10:15 AM on Friday 21 Nov 2014 (Local Time) from KRSN Reporting Station
Overcast Overcast  
Wind Chill: 60°   Ceiling: 8500
Heat Index: 60°   Visibility: 10mi
Dew Point: 51°   Wind: 7mph
Humidity: 73%   Direction: 150°SSE
Pressure: 30.29"   Gusts: NA
Location:  32.3651°N, 92.7332°W
Report Text: KRSN 211615Z AUTO 15006KT 10SM OVC085 15/11 A3029 RMK AO2 T01530105
Loading
Personal Weather Stations






























Interactive Weather Map New forecast layout! Learn more

10-Day Weather Forecast

Advertisements
Track Severe Weather on mobile